Flight Track Log - Related Links

Times and Time Zones

All times are in EDT time to prevent confusion due to time zone crossing. See the GGN7335 flight status page for this flight to view local times or setup timezone preferences in your user account.

Time Position Orientation Groundspeed Altitude Reporting Facility
EDT Latitude Longitude Course Direction KTS MPH feet Rate Location/Type
Tue 10:14:08 PM 44.8667 -63.5000 90° East 10 12 500  Level Moncton Center
Tue 10:15:08 PM 44.8667 -63.4833 90° East 120 138 1,500 1,650 Climbing Moncton Center
Tue 10:16:08 PM 44.8333 -63.5000 200° South 140 161 3,800 2,300 Climbing Moncton Center
Tue 10:17:08 PM 44.8333 -63.5667 270° West 190 219 6,100 2,100 Climbing Moncton Center
Tue 10:18:08 PM 44.8333 -63.6500 270° West 180 207 8,000 1,700 Climbing Moncton Center
Tue 10:19:08 PM 44.8333 -63.7167 270° West 190 219 9,500 1,500 Climbing Moncton Center
Tue 10:20:08 PM 44.8500 -63.8000 286° West 200 230 11,000 1,250 Climbing Moncton Center
Tue 10:21:08 PM 44.8500 -63.8833 270° West 200 230 12,000 550 Climbing Moncton Center
Tue 10:22:08 PM 44.8667 -63.9667 286° West 220 253 12,100 50 Climbing Moncton Center
Tue 10:23:08 PM 44.8833 -64.0500 286° West 230 265 12,100  Level Moncton Center
Tue 10:24:08 PM 44.9000 -64.1333 286° West 230 265 12,100  Level Moncton Center
Tue 10:25:08 PM 44.9000 -64.2333 270° West 230 265 12,100  Level Moncton Center
Tue 10:26:08 PM 44.9167 -64.3000 289° West 230 265 12,100  Level Moncton Center
Tue 10:27:08 PM 44.9333 -64.4000 283° West 220 253 12,100  Level Moncton Center
Tue 10:28:08 PM 44.9333 -64.4833 270° West 220 253 12,100 -50 Level Moncton Center
Tue 10:29:08 PM 44.9500 -64.5833 283° West 220 253 12,000 -50 Descending Moncton Center
Tue 10:30:08 PM 44.9667 -64.6500 289° West 230 265 12,000  Level Moncton Center
Tue 10:31:08 PM 44.9667 -64.7500 270° West 230 265 12,000  Level Moncton Center
Tue 10:32:08 PM 44.9833 -64.8500 283° West 230 265 12,000  Level Moncton Center
Tue 10:33:08 PM 45.0000 -64.9333 286° West 230 265 12,000  Level Moncton Center
Tue 10:34:08 PM 45.0000 -65.0167 270° West 230 265 12,000  Level Moncton Center
Tue 10:35:08 PM 45.0167 -65.1000 286° West 230 265 12,000  Level Moncton Center
Tue 10:36:08 PM 45.0333 -65.2000 283° West 230 265 12,000 -400 Level Moncton Center
Tue 10:37:08 PM 45.0500 -65.3000 283° West 230 265 11,200 -950 Descending Moncton Center
Tue 10:38:08 PM 45.0500 -65.3833 270° West 250 288 10,100 -1,150 Descending Moncton Center
Tue 10:39:08 PM 45.0667 -65.4833 283° West 260 299 8,900 -1,150 Descending Moncton Center
Tue 10:40:08 PM 45.0833 -65.5833 283° West 250 288 7,800 -1,000 Descending Moncton Center
Tue 10:41:08 PM 45.1000 -65.6500 290° West 230 265 6,900 -1,150 Descending Moncton Center
Tue 10:42:08 PM 45.1000 -65.7500 270° West 220 253 5,500 -1,400 Descending Moncton Center
Tue 10:43:08 PM 45.1167 -65.8500 283° West 220 253 4,100 -1,450 Descending Moncton Center
Tue 10:44:08 PM 45.1167 -65.9167 270° West 210 242 2,600 -850 Descending Moncton Center
Tue 10:45:08 PM 45.1500 -65.9833 305° West 210 242 2,400 -100 Descending Moncton Center
Tue 10:46:08 PM 45.1833 -65.9833 360° North 170 196 2,400 -250 Level Moncton Center
Tue 10:47:08 PM 45.2333 -65.9333 35° Northeast 160 184 1,900 -600 Descending Moncton Center
Tue 10:48:08 PM 45.2500 -65.9167 35° Northeast 130 150 1,200 -600 Descending Moncton Center
Tue 10:49:08 PM 45.2833 -65.9000 19° North 130 150 700 -500 Descending Moncton Center

Login

Don't have an account? Register now (free) for customized features, flight alerts, and more!